La Mesa, New Mexico
Current Conditions -  °F | °C
As of 8:55 AM on Friday 28 Nov 2014 (Local Time) from KLRU Reporting Station
Clear Clear  
Wind Chill: 11°   Ceiling: Unl
Heat Index: 11°   Visibility: 10mi
Dew Point: -5°   Wind: 0mph
Humidity: 32%   Direction: NA
Pressure: 30.28"   Gusts: NA
Location:  32.12°N, 106.71°W
Report Text: KLRU 281555Z AUTO 00000KT 10SM CLR 11/M05 A3028 RMK AO2 T01101051
Loading
Personal Weather Stations






























Interactive Weather Map New forecast layout! Learn more

10-Day Weather Forecast

Advertisements
Track Severe Weather on mobile